Time;durP1;ratioP1;P1;durP2;ratioP2;P2;SDS_P1;SDS_P2;PMS_P1;PMS_P2;Temp;Humidity;BMP_temperature;BMP_pressure;BME280_temperature;BME280_humidity;BME280_pressure;Samples;Min_cycle;Max_cycle;Signal;HPM_P1;HPM_P2
2021/03/30 00:04:09;;;;;;;;;;;8.60;71.20;;;7.48;53.66;97165.94;10539566;28;2042;-84
2021/03/30 00:09:11;;;;;;;;;;;8.60;71.70;;;7.45;53.89;97166.41;10529911;28;1943;-87
2021/03/30 00:14:13;;;;;;;;;;;8.60;71.80;;;7.36;53.83;97159.69;10533960;28;2172;-86
2021/03/30 00:19:16;;;;;;;;;;;;;;;7.23;54.19;97154.44;10534161;28;2038;-87
2021/03/30 00:24:18;;;;;;;;;;;8.40;72.40;;;7.19;54.55;97162.09;10516216;28;1991;-88
2021/03/30 00:29:19;;;;;;;;;;;8.30;72.80;;;7.10;54.91;97157.22;10532206;28;1920;-85
2021/03/30 00:34:21;;;;;;;;;;;8.20;73.00;;;7.07;54.74;97152.31;10525222;28;1764;-87
2021/03/30 00:39:23;;;;;;;;;;;8.20;73.10;;;7.03;55.38;97151.94;10519738;28;2079;-85
2021/03/30 00:44:25;;;;;;;;;;;8.20;73.50;;;7.08;54.80;97145.94;10534197;28;2120;-86
2021/03/30 00:49:27;;;;;;;;;;;8.20;73.40;;;6.99;54.94;97151.53;10551774;28;1941;-87
2021/03/30 00:54:29;;;;;;;;;;;8.10;73.60;;;6.95;54.85;97155.69;10549945;28;2107;-85
2021/03/30 00:59:31;;;;;;;;;;;9.10;74.10;;;6.91;54.67;97143.78;10522049;28;2221;-88
2021/03/30 01:04:33;;;;;;;;;;;8.00;73.60;;;6.84;55.53;97142.19;10531715;28;2447;-84
2021/03/30 01:09:35;;;;;;;;;;;8.60;74.30;;;6.83;55.12;97145.91;10529129;28;2022;-85
2021/03/30 01:14:37;;;;;;;;;;;8.20;74.00;;;6.76;55.63;97145.94;10522723;28;2279;-86
2021/03/30 01:19:39;;;;;;;;;;;9.00;74.60;;;6.75;55.75;97149.66;10515973;28;1908;-87
2021/03/30 01:24:41;;;;;;;;;;;7.90;74.60;;;6.70;55.95;97144.13;10524352;28;2188;-86
2021/03/30 01:29:43;;;;;;;;;;;7.80;74.60;;;6.67;56.39;97147.22;10517257;28;2161;-86
2021/03/30 01:34:45;;;;;;;;;;;7.80;74.90;;;6.61;56.09;97148.09;10528179;28;3093;-86
2021/03/30 01:39:47;;;;;;;;;;;7.70;74.90;;;6.55;56.45;97140.94;10537612;28;2517;-85
2021/03/30 01:44:49;;;;;;;;;;;7.70;75.10;;;6.46;56.52;97146.53;10537061;28;2110;-87
2021/03/30 01:49:51;;;;;;;;;;;7.60;75.20;;;6.43;56.70;97141.63;10539146;28;2104;-88
2021/03/30 01:54:53;;;;;;;;;;;7.50;75.40;;;6.41;57.07;97132.16;10521437;28;1900;-88
2021/03/30 01:59:55;;;;;;;;;;;7.50;75.60;;;6.41;56.61;97133.00;10564168;28;2095;-88
2021/03/30 02:04:57;;;;;;;;;;;7.50;75.70;;;6.33;57.16;97132.44;10537477;28;2149;-86
2021/03/30 02:10:08;;;;;;;;;;;7.40;75.90;;;6.29;57.37;97131.22;10507185;28;2100;-83
2021/03/30 02:15:10;;;;;;;;;;;7.40;76.00;;;6.30;56.91;97130.16;10520509;28;2094;-87
2021/03/30 02:20:12;;;;;;;;;;;7.40;76.10;;;6.23;57.16;97120.38;10536105;28;2503;-87
2021/03/30 02:25:14;;;;;;;;;;;7.30;76.10;;;6.25;57.11;97127.34;10532070;28;2372;-85
2021/03/30 02:30:16;;;;;;;;;;;7.30;76.40;;;6.11;57.46;97127.41;10514641;28;2336;-85
2021/03/30 02:35:18;;;;;;;;;;;7.30;76.40;;;6.06;57.62;97121.06;10522588;28;1665;-85
2021/03/30 02:40:20;;;;;;;;;;;7.20;76.50;;;5.99;57.61;97120.28;10517299;28;2500;-86
2021/03/30 02:45:22;;;;;;;;;;;7.10;76.80;;;5.95;58.98;97127.88;10524647;28;2224;-84
2021/03/30 02:50:42;;;;;;;;;;;7.00;77.40;;;5.86;58.59;97121.94;10531444;28;2094;-87
2021/03/30 02:55:45;;;;;;;;;;;7.00;77.50;;;5.81;58.79;97123.59;10543745;28;2062;-86
2021/03/30 03:00:47;;;;;;;;;;;6.90;77.80;;;5.80;59.74;97120.09;10573104;28;1760;-86
2021/03/30 03:05:48;;;;;;;;;;;6.90;78.30;;;5.74;60.26;97130.78;10546257;28;1354;-85
2021/03/30 03:10:50;;;;;;;;;;;6.90;78.70;;;5.67;60.91;97125.47;10566346;28;2067;-85
2021/03/30 03:15:52;;;;;;;;;;;6.80;79.60;;;5.65;61.34;97122.19;10525225;28;1970;-86
2021/03/30 03:20:55;;;;;;;;;;;6.80;79.90;;;5.53;61.24;97115.84;10541810;28;1408;-86
2021/03/30 03:25:57;;;;;;;;;;;6.70;80.10;;;5.45;61.94;97124.06;10515208;28;1985;-86
2021/03/30 03:30:59;;;;;;;;;;;6.60;80.50;;;5.38;63.21;97124.09;10542747;28;1871;-86
2021/03/30 03:36:09;;;;;;;;;;;7.80;81.90;;;5.35;62.46;97136.00;10518598;28;1649;-86
2021/03/30 03:41:11;;;;;;;;;;;7.00;81.70;;;5.30;62.86;97129.63;10517611;28;2284;-86
2021/03/30 03:46:13;;;;;;;;;;;6.60;81.70;;;5.26;62.97;97131.06;10527990;28;1990;-86
2021/03/30 03:51:15;;;;;;;;;;;6.40;81.70;;;5.24;63.72;97136.63;10556106;28;1871;-85
2021/03/30 03:56:16;;;;;;;;;;;6.30;82.60;;;5.16;63.34;97131.50;10562425;28;2051;-85
2021/03/30 04:01:18;;;;;;;;;;;6.30;82.60;;;5.03;64.83;97144.84;10571118;28;2161;-85
2021/03/30 04:06:20;;;;;;;;;;;6.20;83.40;;;5.01;66.19;97142.34;10570058;28;2065;-85
2021/03/30 04:11:22;;;;;;;;;;;7.10;85.20;;;4.94;65.74;97146.03;10559572;28;1813;-86
2021/03/30 04:16:24;;;;;;;;;;;6.70;84.90;;;4.93;66.15;97144.41;10571432;28;2036;-85
2021/03/30 04:21:26;;;;;;;;;;;6.40;85.10;;;4.93;65.62;97144.41;10553674;28;2009;-84
2021/03/30 04:26:28;;;;;;;;;;;6.00;85.10;;;4.91;66.07;97141.13;10549138;28;2094;-87
2021/03/30 04:31:30;;;;;;;;;;;7.40;86.00;;;4.86;66.95;97134.56;10553974;28;1863;-86
2021/03/30 04:36:32;;;;;;;;;;;6.00;86.00;;;4.83;66.98;97144.78;10564441;28;2728;-86
2021/03/30 04:41:34;;;;;;;;;;;5.90;86.30;;;4.80;67.26;97150.53;10547907;28;2103;-85
2021/03/30 04:46:36;;;;;;;;;;;5.90;86.60;;;4.76;67.23;97144.78;10572554;28;1969;-86
2021/03/30 04:51:38;;;;;;;;;;;6.10;86.80;;;4.75;66.69;97143.16;10547457;28;1875;-84
2021/03/30 04:56:40;;;;;;;;;;;6.70;87.00;;;4.72;66.85;97158.75;10550332;28;1408;-85
2021/03/30 05:01:42;;;;;;;;;;;5.80;86.60;;;4.68;67.16;97152.97;10561884;28;1619;-86
2021/03/30 05:06:44;;;;;;;;;;;5.70;87.00;;;4.73;66.83;97161.19;10563429;28;1890;-85
2021/03/30 05:11:46;;;;;;;;;;;5.80;87.10;;;4.77;67.35;97165.09;10532998;28;2102;-85
2021/03/30 05:16:48;;;;;;;;;;;6.70;87.70;;;4.92;67.22;97164.91;10558631;28;1785;-85
2021/03/30 05:21:50;;;;;;;;;;;5.90;87.70;;;5.13;66.68;97172.69;10542174;28;1629;-86
2021/03/30 05:26:52;;;;;;;;;;;6.00;87.60;;;5.47;65.92;97170.00;10550643;28;2027;-84
2021/03/30 05:31:54;;;;;;;;;;;6.30;87.30;;;5.78;64.76;97170.16;10548053;28;2179;-84
2021/03/30 05:36:56;;;;;;;;;;;6.60;86.50;;;6.14;63.53;97168.88;10562016;28;1546;-86
2021/03/30 05:42:04;;;;;;;;;;;6.90;85.80;;;6.43;61.91;97167.53;10576554;28;1329;-86
2021/03/30 05:47:14;;;;;;;;;;;7.20;84.60;;;6.62;61.23;97157.75;10552695;28;1917;-83
2021/03/30 05:52:20;;;;;;;;;;;7.40;83.60;;;6.88;61.05;97178.97;10558897;28;2118;-87
2021/03/30 05:57:25;;;;;;;;;;;7.50;83.20;;;7.24;59.08;97182.81;10559160;28;2113;-85
2021/03/30 06:02:28;;;;;;;;;;;7.90;82.40;;;7.58;57.43;97187.69;10542378;28;2134;-85
2021/03/30 06:07:41;;;;;;;;;;;9.50;81.60;;;7.82;56.59;97188.69;10553069;28;1894;-86
2021/03/30 06:13:01;;;;;;;;;;;9.20;79.90;;;8.19;54.71;97191.38;10540765;28;1822;-86
2021/03/30 06:18:18;;;;;;;;;;;10.50;79.40;;;8.52;54.31;97196.34;10548625;28;1770;-86
2021/03/30 06:23:21;;;;;;;;;;;9.10;77.60;;;8.80;52.82;97198.47;10564385;28;2014;-85
2021/03/30 06:28:40;;;;;;;;;;;10.70;77.00;;;9.04;51.96;97194.03;10564546;28;1947;-82
2021/03/30 06:33:50;;;;;;;;;;;9.60;75.20;;;9.25;50.78;97191.84;10545984;28;2080;-85
2021/03/30 06:38:54;;;;;;;;;;;9.80;74.50;;;9.53;49.25;97192.00;10547107;28;2059;-84
2021/03/30 06:49:16;;;;;;;;;;;10.30;72.30;;;9.85;48.41;97197.84;10538470;28;1981;-85
2021/03/30 06:54:18;;;;;;;;;;;10.50;71.60;;;10.02;48.11;97198.78;10524935;28;2021;-86
2021/03/30 06:59:20;;;;;;;;;;;10.70;71.20;;;10.44;47.27;97187.06;10548642;28;1981;-82
2021/03/30 07:04:22;;;;;;;;;;;10.90;70.60;;;10.65;46.64;97182.91;10558633;28;2001;-86
2021/03/30 07:09:24;;;;;;;;;;;11.10;70.10;;;10.87;45.90;97183.84;10561914;28;2038;-85
2021/03/30 07:14:26;;;;;;;;;;;11.40;69.30;;;11.18;44.07;97185.22;10546316;28;2079;-85
2021/03/30 07:19:31;;;;;;;;;;;11.60;68.00;;;11.43;42.97;97192.91;10545391;28;2481;-84
2021/03/30 07:24:33;;;;;;;;;;;11.90;66.80;;;11.75;42.96;97187.75;10541660;28;2289;-85
2021/03/30 07:29:37;;;;;;;;;;;12.20;66.20;;;11.99;42.81;97184.91;10563460;28;2066;-85
2021/03/30 07:34:39;;;;;;;;;;;12.40;66.00;;;12.13;41.96;97188.88;10531309;28;2096;-83
2021/03/30 07:39:41;;;;;;;;;;;12.70;65.20;;;12.38;41.29;97185.72;10534082;28;2121;-83
2021/03/30 07:44:44;;;;;;;;;;;12.90;64.00;;;12.64;40.56;97181.44;10527258;28;1737;-86
2021/03/30 07:49:49;;;;;;;;;;;13.10;63.40;;;12.89;40.06;97184.41;10512920;28;1988;-80
2021/03/30 07:54:51;;;;;;;;;;;13.40;62.70;;;13.06;39.28;97183.50;10536105;28;2948;-84
2021/03/30 07:59:53;;;;;;;;;;;13.70;61.90;;;13.24;37.86;97175.91;10544502;28;2031;-84
2021/03/30 08:04:56;;;;;;;;;;;13.90;60.30;;;13.38;38.79;97178.19;10538386;28;2373;-83
2021/03/30 08:09:58;;;;;;;;;;;14.20;60.40;;;13.63;37.96;97174.88;10523302;28;3343;-84
2021/03/30 08:15:00;;;;;;;;;;;14.40;59.70;;;13.87;36.96;97181.53;10533885;28;2923;-83
2021/03/30 08:20:09;;;;;;;;;;;14.70;59.20;;;14.24;36.69;97183.34;10519708;28;3016;-85
2021/03/30 08:31:04;;;;;;;;;;;15.00;57.10;;;14.45;35.82;97179.69;10547420;28;1981;-86
2021/03/30 08:36:06;;;;;;;;;;;15.20;57.40;;;14.41;36.21;97184.00;10545028;28;3198;-85
2021/03/30 08:41:08;;;;;;;;;;;15.40;57.20;;;14.72;35.83;97181.44;10523093;28;2044;-85
2021/03/30 08:46:13;;;;;;;;;;;15.40;56.90;;;14.45;35.59;97187.81;10522882;28;1923;-86
2021/03/30 08:51:16;;;;;;;;;;;15.30;56.60;;;14.52;35.39;97188.41;10545049;28;2123;-84
2021/03/30 08:56:19;;;;;;;;;;;15.40;56.30;;;14.76;35.35;97196.91;10526525;28;1932;-86
2021/03/30 09:02:02;;;;;;;;;;;15.60;56.10;;;15.16;34.77;97189.16;10381812;28;2094;-87
2021/03/30 09:12:48;;;;;;;;;;;16.10;55.20;;;15.60;33.06;97184.84;10369118;28;2029;-87
2021/03/30 09:18:22;;;;;;;;;;;16.50;54.30;;;16.03;32.42;97177.28;10368376;28;1616;-87
2021/03/30 09:23:26;;;;;;;;;;;16.80;53.90;;;15.83;33.46;97177.28;10358603;28;2012;-87
2021/03/30 09:28:34;;;;;;;;;;;16.90;53.90;;;16.34;33.36;97171.75;10366192;28;2170;-86
2021/03/30 09:33:37;;;;;;;;;;;17.00;54.30;;;16.34;33.64;97172.56;10532890;28;1976;-86
2021/03/30 09:38:39;;;;;;;;;;;17.20;54.30;;;16.32;32.11;97166.59;10527457;28;1927;-87
2021/03/30 09:43:44;;;;;;;;;;;17.30;52.40;;;16.64;28.63;97173.53;10514271;28;2072;-87
2021/03/30 09:48:46;;;;;;;;;;;17.40;49.80;;;16.66;30.00;97179.50;10524801;28;2016;-86
2021/03/30 09:53:48;;;;;;;;;;;17.60;50.00;;;16.59;30.79;97168.13;10519808;28;2128;-87
2021/03/30 09:58:50;;;;;;;;;;;17.60;51.00;;;16.77;27.68;97164.00;10527656;28;2333;-87
2021/03/30 10:03:55;;;;;;;;;;;17.70;48.00;;;16.83;27.98;97163.69;10521504;28;1909;-87
2021/03/30 10:08:58;;;;;;;;;;;17.80;47.70;;;16.78;27.80;97158.28;10540899;28;2011;-86
2021/03/30 10:14:00;;;;;;;;;;;17.80;47.50;;;17.10;28.29;97149.69;10537440;28;2352;-85
2021/03/30 10:19:05;;;;;;;;;;;18.00;48.50;;;17.23;28.71;97154.47;10520213;28;1864;-83
2021/03/30 10:24:07;;;;;;;;;;;18.20;48.30;;;17.29;27.50;97156.06;10518563;28;1932;-85
2021/03/30 10:34:25;;;;;;;;;;;18.30;46.90;;;17.44;27.89;97136.13;10533415;28;1994;-86
2021/03/30 10:39:29;;;;;;;;;;;18.40;47.60;;;17.78;27.00;97129.88;10547130;28;2054;-88
2021/03/30 10:44:31;;;;;;;;;;;18.60;47.00;;;17.62;26.88;97131.88;10527438;28;1666;-87
2021/03/30 10:49:33;;;;;;;;;;;18.70;46.40;;;17.56;26.54;97130.34;10518204;28;1977;-87
2021/03/30 10:54:36;;;;;;;;;;;18.50;45.80;;;17.61;26.88;97113.97;10509600;28;1887;-87
2021/03/30 10:59:38;;;;;;;;;;;18.50;46.60;;;17.71;27.65;97113.91;10515720;28;1873;-86
2021/03/30 11:04:44;;;;;;;;;;;18.60;47.30;;;17.62;28.26;97115.56;10542880;28;2075;-88
2021/03/30 11:09:46;;;;;;;;;;;18.70;47.40;;;17.96;27.18;97098.44;10538635;28;1985;-85
2021/03/30 11:14:50;;;;;;;;;;;18.80;46.80;;;17.94;27.56;97095.16;10520095;28;1651;-84
2021/03/30 11:19:55;;;;;;;;;;;19.00;47.00;;;17.97;28.27;97092.69;10531777;28;1766;-86
2021/03/30 11:25:03;;;;;;;;;;;18.90;47.60;;;17.97;29.26;97081.00;10526650;28;3030;-85
2021/03/30 11:30:08;;;;;;;;;;;18.90;48.20;;;18.15;28.90;97074.81;10521067;28;2734;-86
2021/03/30 11:35:15;;;;;;;;;;;19.10;48.30;;;18.46;28.45;97069.00;10514319;28;3195;-86
2021/03/30 11:40:20;;;;;;;;;;;19.30;48.20;;;18.55;27.91;97059.06;10541561;28;2920;-86
2021/03/30 11:45:30;;;;;;;;;;;19.50;47.70;;;18.67;27.34;97054.00;10511159;28;2645;-86
2021/03/30 11:50:32;;;;;;;;;;;19.60;46.90;;;18.58;27.43;97050.31;10534613;28;2179;-85
2021/03/30 11:55:34;;;;;;;;;;;19.60;46.80;;;18.63;27.42;97040.13;10531591;28;1952;-86
2021/03/30 12:00:42;;;;;;;;;;;19.60;46.70;;;18.80;27.69;97042.38;10529905;28;1937;-86
2021/03/30 12:05:45;;;;;;;;;;;19.70;47.30;;;18.99;27.55;97022.47;10528586;28;2692;-86
2021/03/30 12:10:47;;;;;;;;;;;19.80;46.90;;;19.02;27.01;97019.16;10541156;28;1981;-84
2021/03/30 12:15:49;;;;;;;;;;;19.90;46.50;;;19.05;28.13;97010.41;10537791;28;1748;-87
2021/03/30 12:20:52;;;;;;;;;;;19.90;47.20;;;19.22;28.07;96999.75;10538551;28;1736;-85
2021/03/30 12:25:57;;;;;;;;;;;20.10;47.50;;;19.29;28.02;97005.63;10525672;28;1741;-87
2021/03/30 12:30:59;;;;;;;;;;;20.20;47.30;;;19.42;27.31;96993.94;10578592;28;1976;-84
2021/03/30 12:36:06;;;;;;;;;;;20.30;46.70;;;19.35;28.27;96998.97;10543915;28;2410;-85
2021/03/30 12:41:14;;;;;;;;;;;20.30;47.50;;;19.26;28.38;96984.41;10532846;28;2007;-85
2021/03/30 12:46:18;;;;;;;;;;;20.40;47.40;;;19.52;28.22;96978.47;10538134;28;1714;-87
2021/03/30 12:51:24;;;;;;;;;;;20.30;47.70;;;19.76;27.75;96973.69;10556492;28;1965;-86
2021/03/30 12:56:29;;;;;;;;;;;20.60;47.20;;;19.63;27.38;96975.28;10561558;28;1961;-85
2021/03/30 13:01:36;;;;;;;;;;;20.60;46.90;;;19.41;27.71;96973.25;10542621;28;1849;-86
2021/03/30 13:06:39;;;;;;;;;;;20.50;46.70;;;19.42;27.57;96968.59;10534691;28;2249;-86
2021/03/30 13:11:47;;;;;;;;;;;20.40;46.70;;;19.50;27.62;96961.63;10544263;28;2058;-85
2021/03/30 13:16:55;;;;;;;;;;;20.40;46.90;;;19.58;27.87;96950.84;10530356;28;2014;-85
2021/03/30 13:22:07;;;;;;;;;;;20.40;46.90;;;19.68;27.58;96947.13;10550492;28;1869;-86
2021/03/30 13:27:13;;;;;;;;;;;20.60;46.80;;;19.79;27.33;96937.63;10572497;28;1894;-85
2021/03/30 13:32:19;;;;;;;;;;;20.70;46.80;;;19.71;26.97;96944.56;10535105;28;1567;-85
2021/03/30 13:37:21;;;;;;;;;;;20.60;46.30;;;19.71;26.77;96930.13;10535056;28;2391;-84
2021/03/30 13:42:23;;;;;;;;;;;20.50;45.90;;;19.74;26.69;96929.53;10529857;28;1494;-85
2021/03/30 13:47:25;;;;;;;;;;;20.60;45.80;;;19.71;26.69;96920.03;10513834;28;1906;-85
2021/03/30 13:52:27;;;;;;;;;;;20.70;45.80;;;19.83;26.42;96903.16;10546180;28;1291;-86
2021/03/30 14:03:40;;;;;;;;;;;20.70;45.40;;;19.77;25.69;96898.09;10446536;28;2042;-85
2021/03/30 14:15:47;;;;;;;;;;;20.70;45.30;;;19.82;25.71;96887.09;10400117;28;2067;-85
2021/03/30 14:21:33;;;;;;;;;;;20.70;44.80;;;19.73;25.62;96884.28;10438118;28;2066;-84
2021/03/30 14:32:26;;;;;;;;;;;20.60;45.20;;;19.60;26.17;96868.75;10470282;28;1540;-86
2021/03/30 14:37:30;;;;;;;;;;;20.50;44.90;;;19.65;26.05;96868.59;10419053;28;2194;-86
2021/03/30 14:42:41;;;;;;;;;;;20.50;44.80;;;19.63;26.11;96865.38;10416256;28;1631;-89
2021/03/30 14:53:51;;;;;;;;;;;20.50;45.30;;;19.60;26.06;96855.91;10432956;28;1395;-88
2021/03/30 14:59:01;;;;;;;;;;;20.50;44.80;;;19.70;26.22;96850.22;10421109;28;1779;-87
2021/03/30 15:04:11;;;;;;;;;;;20.60;45.00;;;19.65;26.50;96839.41;10399805;28;1551;-83
2021/03/30 15:09:14;;;;;;;;;;;20.50;45.20;;;19.50;26.41;96839.72;10416686;28;2066;-84
2021/03/30 15:14:22;;;;;;;;;;;20.40;45.00;;;19.54;26.40;96834.47;10407907;28;2008;-85
2021/03/30 15:19:24;;;;;;;;;;;20.40;45.10;;;19.52;26.22;96829.31;10422248;28;1902;-85
2021/03/30 15:24:30;;;;;;;;;;;20.40;44.70;;;19.31;26.59;96836.28;10451439;28;1988;-85
2021/03/30 15:29:59;;;;;;;;;;;20.30;45.00;;;19.31;26.33;96825.41;10434540;28;2097;-87
2021/03/30 15:35:13;;;;;;;;;;;20.20;44.90;;;19.21;26.69;96817.41;10437510;28;1827;-87
2021/03/30 15:40:18;;;;;;;;;;;20.10;45.20;;;19.12;26.94;96814.59;10430908;28;2019;-86
2021/03/30 15:45:50;;;;;;;;;;;20.00;45.30;;;18.97;27.10;96810.25;10415185;28;1988;-86
2021/03/30 15:51:13;;;;;;;;;;;19.90;45.50;;;19.02;26.48;96803.88;10426400;28;1906;-87
2021/03/30 15:56:25;;;;;;;;;;;19.90;44.90;;;18.92;27.16;96806.81;10456734;28;1853;-86
2021/03/30 16:01:31;;;;;;;;;;;19.90;45.60;;;18.93;27.51;96809.25;10447238;28;1447;-87
2021/03/30 16:06:44;;;;;;;;;;;19.80;45.90;;;18.85;27.88;96809.94;10419911;28;1737;-87
2021/03/30 16:12:08;;;;;;;;;;;19.80;46.40;;;18.93;27.91;96805.72;10435143;28;2073;-84
2021/03/30 16:17:17;;;;;;;;;;;19.80;46.40;;;18.81;28.07;96808.91;10462160;28;2008;-85
2021/03/30 16:22:27;;;;;;;;;;;19.70;46.50;;;18.69;28.11;96800.44;10447712;28;1548;-86
2021/03/30 17:03:57;;;;;;;;;;;18.90;47.20;;;17.62;29.20;96792.03;10310207;28;1729;-88
2021/03/30 17:15:55;;;;;;;;;;;18.50;47.30;;;17.19;29.49;96792.06;10300741;28;2046;-84
2021/03/30 17:21:21;;;;;;;;;;;18.30;47.70;;;16.96;30.30;96793.69;10337346;28;2041;-86
2021/03/30 17:27:01;;;;;;;;;;;18.00;48.20;;;17.08;30.30;96790.56;10372604;28;1863;-87
2021/03/30 17:32:56;;;;;;;;;;;17.90;48.50;;;16.90;30.70;96794.84;10356134;28;2023;-86
2021/03/30 17:43:55;;;;;;;;;;;17.80;49.30;;;16.45;31.96;96799.63;10431210;28;1850;-87
2021/03/30 17:49:59;;;;;;;;;;;17.60;49.80;;;16.14;32.72;96801.78;10428535;28;1876;-88
2021/03/30 17:55:42;;;;;;;;;;;17.30;50.40;;;15.84;33.45;96807.44;10444254;28;1967;-88
2021/03/30 18:00:58;;;;;;;;;;;16.90;51.00;;;15.75;33.45;96796.41;10433717;28;1559;-86
2021/03/30 18:06:23;;;;;;;;;;;16.80;51.50;;;15.44;34.57;96803.06;10449333;28;1929;-88
2021/03/30 18:11:42;;;;;;;;;;;16.60;52.10;;;15.17;35.37;96806.19;10427698;28;2061;-88
2021/03/30 18:16:59;;;;;;;;;;;16.50;52.90;;;14.98;35.71;96809.50;10479417;28;1281;-88
2021/03/30 18:22:09;;;;;;;;;;;16.10;53.40;;;14.72;36.63;96816.06;10438589;28;1764;-85
2021/03/30 18:27:12;;;;;;;;;;;15.90;54.20;;;14.74;36.57;96817.41;10436970;28;1968;-86
2021/03/30 18:37:50;;;;;;;;;;;15.60;54.50;;;14.43;36.83;96822.03;10436527;28;1258;-87
2021/03/30 18:42:53;;;;;;;;;;;15.50;54.70;;;14.31;36.99;96821.50;10428521;28;1512;-85
2021/03/30 18:48:16;;;;;;;;;;;15.30;54.90;;;14.12;37.30;96820.41;10428441;28;1983;-86
2021/03/30 19:00:04;;;;;;;;;;;15.10;55.80;;;13.85;37.89;96816.09;10344105;28;1698;-84
2021/03/30 19:05:34;;;;;;;;;;;15.00;55.60;;;13.79;38.15;96809.06;10367375;28;1335;-84
2021/03/30 19:10:46;;;;;;;;;;;14.90;55.80;;;13.76;38.17;96815.00;10339804;28;2126;-83
2021/03/30 19:21:40;;;;;;;;;;;14.60;56.10;;;13.50;38.93;96806.06;10349637;28;2034;-84
2021/03/30 19:26:44;;;;;;;;;;;14.60;56.30;;;13.26;39.11;96803.00;10328243;28;2510;-84
2021/03/30 19:31:52;;;;;;;;;;;14.40;56.60;;;13.27;39.43;96803.81;10404296;28;2068;-85
2021/03/30 19:36:56;;;;;;;;;;;14.30;56.80;;;13.18;38.35;96800.78;10425035;28;1987;-82
2021/03/30 19:42:13;;;;;;;;;;;14.20;56.90;;;13.06;39.67;96792.91;10417643;28;1953;-83
2021/03/30 19:47:17;;;;;;;;;;;14.10;57.10;;;12.83;39.43;96802.25;10404076;28;2120;-84
2021/03/30 19:52:19;;;;;;;;;;;14.00;57.30;;;12.68;41.14;96788.69;10411956;28;1923;-84
2021/03/30 19:57:25;;;;;;;;;;;13.80;58.00;;;12.63;40.74;96780.56;10425179;28;2208;-84
2021/03/30 20:02:27;;;;;;;;;;;13.80;58.60;;;12.50;41.80;96775.66;10424223;28;1842;-85
2021/03/30 20:07:43;;;;;;;;;;;13.60;59.10;;;12.33;42.70;96773.91;10417783;28;2027;-85
2021/03/30 20:12:53;;;;;;;;;;;13.50;59.70;;;12.21;42.75;96778.69;10429518;28;1989;-83
2021/03/30 20:18:02;;;;;;;;;;;13.40;59.60;;;12.10;43.23;96777.03;10413458;28;1658;-85
2021/03/30 20:23:16;;;;;;;;;;;13.30;60.60;;;12.10;44.29;96779.72;10418570;28;1881;-84
2021/03/30 20:28:18;;;;;;;;;;;13.20;61.00;;;11.93;43.36;96760.16;10412326;28;1994;-86
2021/03/30 20:33:28;;;;;;;;;;;13.10;61.20;;;11.86;43.85;96771.97;10449976;28;1386;-86
2021/03/30 20:38:35;;;;;;;;;;;13.00;61.50;;;11.73;44.22;96769.69;10431333;28;2033;-86
2021/03/30 20:49:15;;;;;;;;;;;12.80;62.40;;;11.45;45.88;96761.88;10453289;28;2040;-85
2021/03/30 20:54:31;;;;;;;;;;;12.60;63.20;;;11.37;46.81;96760.47;10413720;28;1879;-87
2021/03/30 20:59:41;;;;;;;;;;;12.50;63.80;;;11.27;46.89;96758.50;10434172;28;1982;-86
2021/03/30 21:04:52;;;;;;;;;;;12.40;64.10;;;11.20;46.47;96757.88;10427135;28;2136;-82
2021/03/30 21:10:00;;;;;;;;;;;12.30;64.30;;;11.07;46.98;96759.09;10419436;28;2037;-83
2021/03/30 21:15:12;;;;;;;;;;;12.20;64.50;;;11.07;47.22;96752.91;10422625;28;2243;-85
2021/03/30 21:20:16;;;;;;;;;;;12.20;64.80;;;10.95;47.62;96739.59;10402062;28;2128;-84
2021/03/30 21:25:17;;;;;;;;;;;12.10;65.30;;;10.87;47.93;96748.06;10423790;28;1541;-85
2021/03/30 21:30:19;;;;;;;;;;;12.00;65.70;;;10.82;48.52;96738.09;10423484;28;1883;-86
2021/03/30 21:35:22;;;;;;;;;;;12.00;66.20;;;10.78;48.61;96734.28;10420617;28;1546;-83
2021/03/30 21:40:28;;;;;;;;;;;11.90;66.30;;;10.68;48.98;96734.13;10436231;28;1855;-86
2021/03/30 21:45:30;;;;;;;;;;;11.80;66.70;;;10.58;49.98;96731.34;10405709;28;1809;-85
2021/03/30 21:50:32;;;;;;;;;;;11.70;67.40;;;10.56;50.14;96730.78;10405238;28;1914;-86
2021/03/30 21:55:37;;;;;;;;;;;11.70;67.90;;;10.45;49.85;96723.66;10447354;28;1868;-87
2021/03/30 22:00:42;;;;;;;;;;;11.60;67.90;;;10.35;50.46;96716.25;10451805;28;2093;-87
2021/03/30 22:05:44;;;;;;;;;;;11.50;68.30;;;10.23;51.17;96726.28;10446908;28;1379;-86
2021/03/30 22:10:48;;;;;;;;;;;11.40;68.50;;;10.16;51.24;96713.00;10436573;28;1923;-86
2021/03/30 22:15:50;;;;;;;;;;;11.30;69.10;;;10.10;51.92;96716.69;10400254;28;1982;-86
2021/03/30 22:20:52;;;;;;;;;;;11.20;69.80;;;9.97;52.44;96714.34;10406280;28;2018;-86
2021/03/30 22:25:54;;;;;;;;;;;11.10;70.20;;;9.87;52.75;96712.34;10418725;28;1946;-85
2021/03/30 22:30:56;;;;;;;;;;;11.00;70.30;;;9.80;53.03;96710.84;10433094;28;2061;-85
2021/03/30 22:35:58;;;;;;;;;;;10.90;70.90;;;9.69;53.47;96709.91;10416235;28;1838;-86
2021/03/30 22:41:00;;;;;;;;;;;10.90;71.20;;;9.62;54.33;96704.72;10413016;28;1773;-85
2021/03/30 22:46:05;;;;;;;;;;;10.80;71.80;;;9.55;54.53;96719.34;10390830;28;1882;-86
2021/03/30 22:51:07;;;;;;;;;;;10.70;72.30;;;9.50;54.74;96712.03;10410488;28;1983;-83
2021/03/30 22:56:10;;;;;;;;;;;10.60;72.50;;;9.42;55.39;96702.50;10424449;28;1553;-84
2021/03/30 23:01:16;;;;;;;;;;;10.60;73.20;;;9.33;55.57;96701.25;10407862;28;1969;-87
2021/03/30 23:06:21;;;;;;;;;;;10.50;73.30;;;9.27;56.11;96706.78;10446537;28;1822;-83
2021/03/30 23:11:23;;;;;;;;;;;10.40;73.90;;;9.21;56.33;96703.19;10416869;28;1898;-85
2021/03/30 23:16:25;;;;;;;;;;;10.40;74.50;;;9.15;57.01;96702.31;10465106;28;1912;-86
2021/03/30 23:21:27;;;;;;;;;;;10.30;75.00;;;9.05;57.51;96698.63;10471208;28;1618;-86
2021/03/30 23:26:29;;;;;;;;;;;10.20;75.10;;;8.96;57.53;96692.84;10417132;28;1479;-86
2021/03/30 23:31:31;;;;;;;;;;;10.10;75.30;;;8.92;57.47;96699.75;10405173;28;1928;-85
2021/03/30 23:36:33;;;;;;;;;;;10.00;75.80;;;8.84;58.11;96695.59;10402790;28;2011;-84
2021/03/30 23:41:36;;;;;;;;;;;10.00;76.20;;;8.80;58.80;96697.13;10424946;28;1933;-85
2021/03/30 23:46:39;;;;;;;;;;;9.90;76.60;;;8.73;58.56;96696.44;10441085;28;2009;-85
2021/03/30 23:51:42;;;;;;;;;;;11.00;77.60;;;8.66;59.19;96691.22;10428139;28;1984;-83
2021/03/30 23:56:46;;;;;;;;;;;9.80;77.40;;;8.58;59.95;96683.53;10440926;28;1907;-85
